Hovedside
METAR-TAF:

METAR-TAF

Lufthavner :

Vadsø lufthavn

Vadsø, Norge

breddegrad: 70-04N, lengdegrad: 029-51E, høyde over havet: 3 m

Gjeldene værobservasjon

Denne rapporten ble laget for 57 minutter siden, klokken 17:50 UTC
Vind 10 kt fra Vest
Temperatur 3°C
Luftfuktighet 75%
Trykk 1017 hPa
Sikt 10 km eller mer
ingen skyer under 1500 m og ingen bygeskyer

METAR: ENVD 191750Z 26010KT CAVOK 03/M01 Q1017

Tid: 19:47 (18:47 UTC)

Varsel

Denne rapporten ble laget for 1 time og 47 minutter siden, klokken 17:00 UTC
Varsel gyldig fra 19. klokken 18 UTC til 19. klokken 24 UTC
Vind 15 kt fra Vest
Sikt 10 km eller mer
Få skyer i en høyde av 3000 ft
Midlertidig
fra 19. klokken 21 UTC til 19. klokken 24 UTC
Vind 30 kt fra Vest

TAF: ENVD 191700Z 1918/1924 27015KT 9999 FEW030 TEMPO 1921/1924 27030KT

Værobservasjoner og værvarsel for over 4000 flyplasser (METAR- og TAF-rapporter).

Tilgjengelige stasjoner er representert av de røde og gule prikkene på kartet.

Hold musepekeren over prikken for å se navnet på stasjonen.

Klikk så for å se værobservasjoner og -varsler.

For å forandre kartet kan du klikke på den grønne knappen med svart kryss for å zoome inn, på den grønne knappen med strek for å zoome ut, eller på de grønne pilene for å se tilstøtende kart.


METAR-TAF: